Terminal Aerodrome Forecast
Issued by NWS Sterling, VA

Home | Current Version | Previous Version | Text Only | Print | Product List | Glossary On
Versions: 1 2 3 4 5 6 7 8 9 10 11 12 13 14 15 16 17 18 19 20 21 22 23 24 25 26 27 28
000
FTUS41 KLWX 281700
TAFIAD
TAF
KIAD 281725Z 2818/2924 31010G18KT P6SM BKN050
     FM282100 30007KT P6SM FEW050 SCT100
     FM282300 VRB03KT P6SM SCT050 BKN100
     FM291400 16008KT P6SM BKN130
     FM291800 18010G18KT P6SM BKN130=

USA.gov is the U.S. government's official web portal to all federal, state and local government web resources and services.